sensor_id;sensor_type;location;lat;lon;timestamp;P1;durP1;ratioP1;P2;durP2;ratioP2
568;SDS011;269;48.884;9.192;2023-12-28T00:01:40;3.58;;;3.28;;
568;SDS011;269;48.884;9.192;2023-12-28T00:04:07;3.53;;;3.22;;
568;SDS011;269;48.884;9.192;2023-12-28T00:06:33;2.65;;;2.45;;
568;SDS011;269;48.884;9.192;2023-12-28T00:09:01;2.53;;;2.33;;
568;SDS011;269;48.884;9.192;2023-12-28T00:11:28;2.55;;;2.35;;
568;SDS011;269;48.884;9.192;2023-12-28T00:13:54;2.40;;;2.20;;
568;SDS011;269;48.884;9.192;2023-12-28T00:16:24;2.25;;;2.00;;
568;SDS011;269;48.884;9.192;2023-12-28T00:18:50;1.95;;;1.85;;
568;SDS011;269;48.884;9.192;2023-12-28T00:21:17;1.88;;;1.77;;
568;SDS011;269;48.884;9.192;2023-12-28T00:23:52;1.92;;;1.80;;
568;SDS011;269;48.884;9.192;2023-12-28T00:26:19;2.05;;;1.95;;
568;SDS011;269;48.884;9.192;2023-12-28T00:28:48;2.67;;;1.90;;
568;SDS011;269;48.884;9.192;2023-12-28T00:31:15;2.20;;;2.00;;
568;SDS011;269;48.884;9.192;2023-12-28T00:33:43;1.90;;;1.80;;
568;SDS011;269;48.884;9.192;2023-12-28T00:36:09;1.80;;;1.70;;
568;SDS011;269;48.884;9.192;2023-12-28T00:38:36;2.38;;;2.17;;
568;SDS011;269;48.884;9.192;2023-12-28T00:41:03;2.30;;;1.85;;
568;SDS011;269;48.884;9.192;2023-12-28T00:43:29;1.60;;;1.50;;
568;SDS011;269;48.884;9.192;2023-12-28T00:45:56;2.88;;;1.90;;
568;SDS011;269;48.884;9.192;2023-12-28T00:48:25;2.50;;;1.88;;
568;SDS011;269;48.884;9.192;2023-12-28T00:50:54;2.25;;;2.08;;
568;SDS011;269;48.884;9.192;2023-12-28T00:53:23;3.53;;;1.98;;
568;SDS011;269;48.884;9.192;2023-12-28T00:55:50;2.10;;;1.90;;
568;SDS011;269;48.884;9.192;2023-12-28T00:58:17;1.90;;;1.80;;
568;SDS011;269;48.884;9.192;2023-12-28T01:00:44;2.00;;;1.90;;
568;SDS011;269;48.884;9.192;2023-12-28T01:03:10;3.08;;;2.28;;
568;SDS011;269;48.884;9.192;2023-12-28T01:05:37;3.00;;;2.38;;
568;SDS011;269;48.884;9.192;2023-12-28T01:08:05;2.22;;;2.05;;
568;SDS011;269;48.884;9.192;2023-12-28T01:10:32;1.90;;;1.80;;
568;SDS011;269;48.884;9.192;2023-12-28T01:12:58;2.63;;;2.20;;
568;SDS011;269;48.884;9.192;2023-12-28T01:15:24;2.40;;;2.10;;
568;SDS011;269;48.884;9.192;2023-12-28T01:17:52;2.53;;;2.33;;
568;SDS011;269;48.884;9.192;2023-12-28T01:20:18;1.90;;;1.80;;
568;SDS011;269;48.884;9.192;2023-12-28T01:22:45;2.05;;;1.83;;
568;SDS011;269;48.884;9.192;2023-12-28T01:25:14;2.20;;;2.00;;
568;SDS011;269;48.884;9.192;2023-12-28T01:27:40;2.53;;;1.88;;
568;SDS011;269;48.884;9.192;2023-12-28T01:30:07;2.47;;;1.90;;
568;SDS011;269;48.884;9.192;2023-12-28T01:32:34;2.50;;;2.30;;
568;SDS011;269;48.884;9.192;2023-12-28T01:35:01;2.05;;;1.80;;
568;SDS011;269;48.884;9.192;2023-12-28T01:37:27;1.80;;;1.70;;
568;SDS011;269;48.884;9.192;2023-12-28T01:39:56;2.28;;;2.08;;
568;SDS011;269;48.884;9.192;2023-12-28T01:42:23;2.60;;;2.30;;
568;SDS011;269;48.884;9.192;2023-12-28T01:44:49;2.38;;;1.88;;
568;SDS011;269;48.884;9.192;2023-12-28T01:47:16;2.03;;;1.85;;
568;SDS011;269;48.884;9.192;2023-12-28T01:49:43;2.00;;;1.80;;
568;SDS011;269;48.884;9.192;2023-12-28T01:52:10;2.05;;;1.90;;
568;SDS011;269;48.884;9.192;2023-12-28T01:54:36;1.95;;;1.75;;
568;SDS011;269;48.884;9.192;2023-12-28T01:57:04;2.03;;;1.92;;
568;SDS011;269;48.884;9.192;2023-12-28T01:59:32;2.70;;;2.00;;
568;SDS011;269;48.884;9.192;2023-12-28T02:01:59;1.83;;;1.73;;
568;SDS011;269;48.884;9.192;2023-12-28T02:04:25;2.10;;;2.00;;
568;SDS011;269;48.884;9.192;2023-12-28T02:06:54;2.30;;;2.00;;
568;SDS011;269;48.884;9.192;2023-12-28T02:09:22;2.17;;;1.92;;
568;SDS011;269;48.884;9.192;2023-12-28T02:11:49;2.50;;;1.95;;
568;SDS011;269;48.884;9.192;2023-12-28T02:14:16;1.65;;;1.45;;
568;SDS011;269;48.884;9.192;2023-12-28T02:16:44;2.53;;;2.15;;
568;SDS011;269;48.884;9.192;2023-12-28T02:19:14;2.20;;;2.00;;
568;SDS011;269;48.884;9.192;2023-12-28T02:21:47;2.00;;;1.90;;
568;SDS011;269;48.884;9.192;2023-12-28T02:24:14;1.92;;;1.83;;
568;SDS011;269;48.884;9.192;2023-12-28T02:26:42;2.10;;;1.90;;
568;SDS011;269;48.884;9.192;2023-12-28T02:29:09;2.33;;;2.13;;
568;SDS011;269;48.884;9.192;2023-12-28T02:31:37;2.50;;;2.30;;
568;SDS011;269;48.884;9.192;2023-12-28T02:34:09;1.90;;;1.70;;
568;SDS011;269;48.884;9.192;2023-12-28T02:36:41;1.95;;;1.85;;
568;SDS011;269;48.884;9.192;2023-12-28T02:39:10;3.20;;;2.05;;
568;SDS011;269;48.884;9.192;2023-12-28T02:41:38;2.10;;;2.00;;
568;SDS011;269;48.884;9.192;2023-12-28T02:44:07;1.92;;;1.80;;
568;SDS011;269;48.884;9.192;2023-12-28T02:46:34;1.85;;;1.70;;
568;SDS011;269;48.884;9.192;2023-12-28T02:49:00;2.13;;;1.80;;
568;SDS011;269;48.884;9.192;2023-12-28T02:51:27;2.42;;;1.95;;
568;SDS011;269;48.884;9.192;2023-12-28T02:53:54;1.80;;;1.70;;
568;SDS011;269;48.884;9.192;2023-12-28T02:56:21;2.20;;;2.00;;
568;SDS011;269;48.884;9.192;2023-12-28T02:58:48;1.90;;;1.70;;
568;SDS011;269;48.884;9.192;2023-12-28T03:01:16;1.75;;;1.65;;
568;SDS011;269;48.884;9.192;2023-12-28T03:03:42;2.28;;;1.63;;
568;SDS011;269;48.884;9.192;2023-12-28T03:06:11;1.77;;;1.60;;
568;SDS011;269;48.884;9.192;2023-12-28T03:08:37;2.20;;;2.00;;
568;SDS011;269;48.884;9.192;2023-12-28T03:11:04;2.15;;;2.00;;
568;SDS011;269;48.884;9.192;2023-12-28T03:13:30;1.80;;;1.70;;
568;SDS011;269;48.884;9.192;2023-12-28T03:15:57;1.80;;;1.70;;
568;SDS011;269;48.884;9.192;2023-12-28T03:18:25;2.72;;;2.13;;
568;SDS011;269;48.884;9.192;2023-12-28T03:20:52;2.10;;;1.65;;
568;SDS011;269;48.884;9.192;2023-12-28T03:23:19;3.33;;;2.38;;
568;SDS011;269;48.884;9.192;2023-12-28T03:25:45;2.03;;;1.70;;
568;SDS011;269;48.884;9.192;2023-12-28T03:28:12;2.17;;;1.98;;
568;SDS011;269;48.884;9.192;2023-12-28T03:30:38;2.00;;;1.80;;
568;SDS011;269;48.884;9.192;2023-12-28T03:33:05;1.75;;;1.65;;
568;SDS011;269;48.884;9.192;2023-12-28T03:35:33;1.98;;;1.70;;
568;SDS011;269;48.884;9.192;2023-12-28T03:37:59;2.47;;;1.40;;
568;SDS011;269;48.884;9.192;2023-12-28T03:40:26;2.00;;;1.90;;
568;SDS011;269;48.884;9.192;2023-12-28T03:42:53;1.95;;;1.85;;
568;SDS011;269;48.884;9.192;2023-12-28T03:45:20;2.30;;;1.88;;
568;SDS011;269;48.884;9.192;2023-12-28T03:47:46;2.35;;;1.67;;
568;SDS011;269;48.884;9.192;2023-12-28T03:50:13;2.10;;;1.92;;
568;SDS011;269;48.884;9.192;2023-12-28T03:52:42;1.70;;;1.60;;
568;SDS011;269;48.884;9.192;2023-12-28T03:55:09;2.20;;;2.00;;
568;SDS011;269;48.884;9.192;2023-12-28T03:57:35;2.53;;;1.80;;
568;SDS011;269;48.884;9.192;2023-12-28T04:00:03;2.20;;;2.00;;
568;SDS011;269;48.884;9.192;2023-12-28T04:02:30;1.90;;;1.70;;
568;SDS011;269;48.884;9.192;2023-12-28T04:04:57;2.00;;;1.50;;
568;SDS011;269;48.884;9.192;2023-12-28T04:07:24;1.88;;;1.70;;
568;SDS011;269;48.884;9.192;2023-12-28T04:09:54;2.08;;;1.88;;
568;SDS011;269;48.884;9.192;2023-12-28T04:12:21;2.05;;;1.83;;
568;SDS011;269;48.884;9.192;2023-12-28T04:14:47;1.42;;;1.33;;
568;SDS011;269;48.884;9.192;2023-12-28T04:17:14;1.90;;;1.70;;
568;SDS011;269;48.884;9.192;2023-12-28T04:19:41;1.70;;;1.60;;
568;SDS011;269;48.884;9.192;2023-12-28T04:22:08;2.22;;;1.90;;
568;SDS011;269;48.884;9.192;2023-12-28T04:24:34;1.88;;;1.70;;
568;SDS011;269;48.884;9.192;2023-12-28T04:27:09;2.05;;;1.85;;
568;SDS011;269;48.884;9.192;2023-12-28T04:29:35;1.70;;;1.60;;
568;SDS011;269;48.884;9.192;2023-12-28T04:32:02;1.60;;;1.50;;
568;SDS011;269;48.884;9.192;2023-12-28T04:34:29;2.10;;;1.90;;
568;SDS011;269;48.884;9.192;2023-12-28T04:36:55;1.70;;;1.60;;
568;SDS011;269;48.884;9.192;2023-12-28T04:39:22;1.70;;;1.60;;
568;SDS011;269;48.884;9.192;2023-12-28T04:41:49;1.40;;;1.30;;
568;SDS011;269;48.884;9.192;2023-12-28T04:44:17;1.70;;;1.60;;
568;SDS011;269;48.884;9.192;2023-12-28T04:46:44;1.50;;;1.40;;
568;SDS011;269;48.884;9.192;2023-12-28T04:49:10;1.83;;;1.73;;
568;SDS011;269;48.884;9.192;2023-12-28T04:51:41;1.98;;;1.77;;
568;SDS011;269;48.884;9.192;2023-12-28T04:54:09;1.88;;;1.70;;
568;SDS011;269;48.884;9.192;2023-12-28T04:56:36;3.03;;;1.70;;
568;SDS011;269;48.884;9.192;2023-12-28T04:59:05;1.58;;;1.48;;
568;SDS011;269;48.884;9.192;2023-12-28T05:01:34;1.60;;;1.50;;
568;SDS011;269;48.884;9.192;2023-12-28T05:04:06;1.90;;;1.80;;
568;SDS011;269;48.884;9.192;2023-12-28T05:06:33;1.40;;;1.30;;
568;SDS011;269;48.884;9.192;2023-12-28T05:09:00;2.30;;;1.42;;
568;SDS011;269;48.884;9.192;2023-12-28T05:11:29;2.20;;;1.85;;
568;SDS011;269;48.884;9.192;2023-12-28T05:13:55;1.90;;;1.70;;
568;SDS011;269;48.884;9.192;2023-12-28T05:16:22;1.88;;;1.70;;
568;SDS011;269;48.884;9.192;2023-12-28T05:18:50;1.70;;;1.60;;
568;SDS011;269;48.884;9.192;2023-12-28T05:21:17;1.75;;;1.65;;
568;SDS011;269;48.884;9.192;2023-12-28T05:23:43;3.00;;;1.50;;
568;SDS011;269;48.884;9.192;2023-12-28T05:26:10;2.00;;;1.80;;
568;SDS011;269;48.884;9.192;2023-12-28T05:28:36;2.95;;;1.92;;
568;SDS011;269;48.884;9.192;2023-12-28T05:31:03;1.88;;;1.67;;
568;SDS011;269;48.884;9.192;2023-12-28T05:33:30;2.55;;;1.60;;
568;SDS011;269;48.884;9.192;2023-12-28T05:35:58;2.33;;;1.85;;
568;SDS011;269;48.884;9.192;2023-12-28T05:38:25;1.88;;;1.77;;
568;SDS011;269;48.884;9.192;2023-12-28T05:40:52;2.70;;;1.90;;
568;SDS011;269;48.884;9.192;2023-12-28T05:43:18;1.60;;;1.50;;
568;SDS011;269;48.884;9.192;2023-12-28T05:45:45;1.60;;;1.50;;
568;SDS011;269;48.884;9.192;2023-12-28T05:48:12;2.10;;;1.80;;
568;SDS011;269;48.884;9.192;2023-12-28T05:50:39;2.20;;;1.65;;
568;SDS011;269;48.884;9.192;2023-12-28T05:53:07;2.08;;;1.88;;
568;SDS011;269;48.884;9.192;2023-12-28T05:55:38;1.75;;;1.55;;
568;SDS011;269;48.884;9.192;2023-12-28T05:58:05;2.17;;;1.83;;
568;SDS011;269;48.884;9.192;2023-12-28T06:00:31;2.00;;;1.80;;
568;SDS011;269;48.884;9.192;2023-12-28T06:02:58;1.90;;;1.35;;
568;SDS011;269;48.884;9.192;2023-12-28T06:05:28;1.70;;;1.60;;
568;SDS011;269;48.884;9.192;2023-12-28T06:07:55;1.50;;;1.40;;
568;SDS011;269;48.884;9.192;2023-12-28T06:10:24;1.70;;;1.60;;
568;SDS011;269;48.884;9.192;2023-12-28T06:12:50;1.70;;;1.60;;
568;SDS011;269;48.884;9.192;2023-12-28T06:15:17;1.85;;;1.75;;
568;SDS011;269;48.884;9.192;2023-12-28T06:17:44;2.17;;;1.90;;
568;SDS011;269;48.884;9.192;2023-12-28T06:20:11;2.00;;;1.63;;
568;SDS011;269;48.884;9.192;2023-12-28T06:22:37;2.65;;;1.40;;
568;SDS011;269;48.884;9.192;2023-12-28T06:25:06;1.60;;;1.38;;
568;SDS011;269;48.884;9.192;2023-12-28T06:27:34;3.05;;;1.90;;
568;SDS011;269;48.884;9.192;2023-12-28T06:30:01;2.00;;;1.33;;
568;SDS011;269;48.884;9.192;2023-12-28T06:32:27;1.63;;;1.30;;
568;SDS011;269;48.884;9.192;2023-12-28T06:34:54;1.83;;;1.65;;
568;SDS011;269;48.884;9.192;2023-12-28T06:37:21;1.73;;;1.58;;
568;SDS011;269;48.884;9.192;2023-12-28T06:39:47;1.52;;;1.40;;
568;SDS011;269;48.884;9.192;2023-12-28T06:42:15;1.60;;;1.50;;
568;SDS011;269;48.884;9.192;2023-12-28T06:44:43;1.58;;;1.48;;
568;SDS011;269;48.884;9.192;2023-12-28T06:47:10;1.33;;;1.20;;
568;SDS011;269;48.884;9.192;2023-12-28T06:49:36;3.45;;;1.83;;
568;SDS011;269;48.884;9.192;2023-12-28T06:52:03;2.15;;;1.85;;
568;SDS011;269;48.884;9.192;2023-12-28T06:54:30;1.83;;;1.65;;
568;SDS011;269;48.884;9.192;2023-12-28T06:56:56;1.58;;;1.48;;
568;SDS011;269;48.884;9.192;2023-12-28T06:59:23;1.70;;;1.33;;
568;SDS011;269;48.884;9.192;2023-12-28T07:01:53;2.13;;;1.30;;
568;SDS011;269;48.884;9.192;2023-12-28T07:04:20;1.65;;;1.20;;
568;SDS011;269;48.884;9.192;2023-12-28T07:06:50;1.55;;;1.38;;
568;SDS011;269;48.884;9.192;2023-12-28T07:09:17;1.65;;;1.10;;
568;SDS011;269;48.884;9.192;2023-12-28T07:11:46;2.65;;;1.30;;
568;SDS011;269;48.884;9.192;2023-12-28T07:14:13;1.50;;;1.25;;
568;SDS011;269;48.884;9.192;2023-12-28T07:16:42;1.58;;;1.20;;
568;SDS011;269;48.884;9.192;2023-12-28T07:19:10;3.58;;;1.60;;
568;SDS011;269;48.884;9.192;2023-12-28T07:21:36;2.92;;;1.67;;
568;SDS011;269;48.884;9.192;2023-12-28T07:24:05;3.47;;;1.65;;
568;SDS011;269;48.884;9.192;2023-12-28T07:26:33;1.90;;;1.60;;
568;SDS011;269;48.884;9.192;2023-12-28T07:29:03;2.08;;;1.70;;
568;SDS011;269;48.884;9.192;2023-12-28T07:31:32;2.72;;;1.60;;
568;SDS011;269;48.884;9.192;2023-12-28T07:33:59;1.50;;;1.20;;
568;SDS011;269;48.884;9.192;2023-12-28T07:36:27;2.63;;;1.85;;
568;SDS011;269;48.884;9.192;2023-12-28T07:38:54;2.40;;;1.60;;
568;SDS011;269;48.884;9.192;2023-12-28T07:41:21;3.10;;;2.20;;
568;SDS011;269;48.884;9.192;2023-12-28T07:43:48;3.45;;;2.05;;
568;SDS011;269;48.884;9.192;2023-12-28T07:46:14;2.78;;;2.15;;
568;SDS011;269;48.884;9.192;2023-12-28T07:48:41;2.35;;;1.92;;
568;SDS011;269;48.884;9.192;2023-12-28T07:51:08;3.08;;;2.17;;
568;SDS011;269;48.884;9.192;2023-12-28T07:53:37;2.65;;;1.85;;
568;SDS011;269;48.884;9.192;2023-12-28T07:56:05;3.63;;;2.38;;
568;SDS011;269;48.884;9.192;2023-12-28T07:58:33;2.67;;;2.10;;
568;SDS011;269;48.884;9.192;2023-12-28T08:01:02;2.20;;;2.00;;
568;SDS011;269;48.884;9.192;2023-12-28T08:03:30;5.40;;;2.10;;
568;SDS011;269;48.884;9.192;2023-12-28T08:05:57;3.10;;;2.40;;
568;SDS011;269;48.884;9.192;2023-12-28T08:08:24;2.20;;;2.00;;
568;SDS011;269;48.884;9.192;2023-12-28T08:10:52;1.92;;;1.83;;
568;SDS011;269;48.884;9.192;2023-12-28T08:13:18;2.05;;;1.85;;
568;SDS011;269;48.884;9.192;2023-12-28T08:15:45;2.58;;;1.90;;
568;SDS011;269;48.884;9.192;2023-12-28T08:18:12;3.30;;;2.00;;
568;SDS011;269;48.884;9.192;2023-12-28T08:20:39;3.20;;;2.20;;
568;SDS011;269;48.884;9.192;2023-12-28T08:23:05;1.77;;;1.67;;
568;SDS011;269;48.884;9.192;2023-12-28T08:25:33;1.88;;;1.55;;
568;SDS011;269;48.884;9.192;2023-12-28T08:28:05;1.95;;;1.65;;
568;SDS011;269;48.884;9.192;2023-12-28T08:30:32;3.55;;;2.05;;
568;SDS011;269;48.884;9.192;2023-12-28T08:32:59;2.13;;;1.90;;
568;SDS011;269;48.884;9.192;2023-12-28T08:35:26;2.17;;;1.83;;
568;SDS011;269;48.884;9.192;2023-12-28T08:37:53;3.70;;;2.00;;
568;SDS011;269;48.884;9.192;2023-12-28T08:40:19;2.90;;;1.75;;
568;SDS011;269;48.884;9.192;2023-12-28T08:42:46;2.20;;;2.00;;
568;SDS011;269;48.884;9.192;2023-12-28T08:45:17;2.10;;;2.00;;
568;SDS011;269;48.884;9.192;2023-12-28T08:47:44;2.90;;;2.50;;
568;SDS011;269;48.884;9.192;2023-12-28T08:50:11;4.15;;;2.15;;
568;SDS011;269;48.884;9.192;2023-12-28T08:52:38;3.08;;;2.13;;
568;SDS011;269;48.884;9.192;2023-12-28T08:55:05;4.00;;;2.75;;
568;SDS011;269;48.884;9.192;2023-12-28T08:57:31;2.90;;;1.80;;
568;SDS011;269;48.884;9.192;2023-12-28T08:59:58;2.10;;;1.95;;
568;SDS011;269;48.884;9.192;2023-12-28T09:02:29;1.70;;;1.60;;
568;SDS011;269;48.884;9.192;2023-12-28T09:04:57;2.10;;;1.70;;
568;SDS011;269;48.884;9.192;2023-12-28T09:07:26;2.22;;;1.80;;
568;SDS011;269;48.884;9.192;2023-12-28T09:09:52;2.13;;;1.75;;
568;SDS011;269;48.884;9.192;2023-12-28T09:12:19;2.08;;;1.65;;
568;SDS011;269;48.884;9.192;2023-12-28T09:14:47;1.73;;;1.63;;
568;SDS011;269;48.884;9.192;2023-12-28T09:17:17;2.72;;;2.10;;
568;SDS011;269;48.884;9.192;2023-12-28T09:19:45;2.80;;;2.40;;
568;SDS011;269;48.884;9.192;2023-12-28T09:22:13;3.88;;;3.47;;
568;SDS011;269;48.884;9.192;2023-12-28T09:24:41;4.63;;;3.47;;
568;SDS011;269;48.884;9.192;2023-12-28T09:27:08;3.45;;;3.15;;
568;SDS011;269;48.884;9.192;2023-12-28T09:29:35;3.53;;;3.22;;
568;SDS011;269;48.884;9.192;2023-12-28T09:32:02;2.90;;;2.60;;
568;SDS011;269;48.884;9.192;2023-12-28T09:34:28;3.13;;;2.83;;
568;SDS011;269;48.884;9.192;2023-12-28T09:36:56;3.13;;;2.85;;
568;SDS011;269;48.884;9.192;2023-12-28T09:39:23;3.35;;;2.90;;
568;SDS011;269;48.884;9.192;2023-12-28T09:41:54;3.42;;;3.00;;
568;SDS011;269;48.884;9.192;2023-12-28T09:44:23;3.38;;;3.08;;
568;SDS011;269;48.884;9.192;2023-12-28T09:46:51;3.88;;;3.10;;
568;SDS011;269;48.884;9.192;2023-12-28T09:49:21;5.80;;;2.88;;
568;SDS011;269;48.884;9.192;2023-12-28T09:51:48;3.70;;;3.30;;
568;SDS011;269;48.884;9.192;2023-12-28T09:54:20;3.75;;;3.00;;
568;SDS011;269;48.884;9.192;2023-12-28T09:56:47;3.10;;;2.80;;
568;SDS011;269;48.884;9.192;2023-12-28T09:59:14;3.92;;;2.75;;
568;SDS011;269;48.884;9.192;2023-12-28T10:01:42;3.17;;;2.90;;
568;SDS011;269;48.884;9.192;2023-12-28T10:04:09;4.10;;;3.65;;
568;SDS011;269;48.884;9.192;2023-12-28T10:06:37;3.38;;;3.03;;
568;SDS011;269;48.884;9.192;2023-12-28T10:09:08;3.25;;;2.80;;
568;SDS011;269;48.884;9.192;2023-12-28T10:11:36;4.30;;;3.60;;
568;SDS011;269;48.884;9.192;2023-12-28T10:14:05;4.80;;;3.55;;
568;SDS011;269;48.884;9.192;2023-12-28T10:16:32;3.63;;;3.33;;
568;SDS011;269;48.884;9.192;2023-12-28T10:18:58;3.88;;;2.85;;
568;SDS011;269;48.884;9.192;2023-12-28T10:21:25;3.55;;;2.80;;
568;SDS011;269;48.884;9.192;2023-12-28T10:23:52;4.40;;;3.70;;
568;SDS011;269;48.884;9.192;2023-12-28T10:26:19;4.07;;;3.67;;
568;SDS011;269;48.884;9.192;2023-12-28T10:28:47;4.47;;;3.58;;
568;SDS011;269;48.884;9.192;2023-12-28T10:31:14;4.45;;;3.25;;
568;SDS011;269;48.884;9.192;2023-12-28T10:33:41;4.47;;;4.07;;
568;SDS011;269;48.884;9.192;2023-12-28T10:36:10;5.53;;;4.55;;
568;SDS011;269;48.884;9.192;2023-12-28T10:38:39;8.65;;;6.72;;
568;SDS011;269;48.884;9.192;2023-12-28T10:41:07;9.90;;;7.05;;
568;SDS011;269;48.884;9.192;2023-12-28T10:43:37;7.78;;;6.03;;
568;SDS011;269;48.884;9.192;2023-12-28T10:46:13;8.05;;;6.20;;
568;SDS011;269;48.884;9.192;2023-12-28T10:48:46;7.97;;;5.93;;
568;SDS011;269;48.884;9.192;2023-12-28T10:51:15;6.97;;;5.60;;
568;SDS011;269;48.884;9.192;2023-12-28T10:53:45;4.00;;;3.40;;
568;SDS011;269;48.884;9.192;2023-12-28T10:56:18;3.60;;;3.30;;
568;SDS011;269;48.884;9.192;2023-12-28T10:58:48;3.25;;;2.95;;
568;SDS011;269;48.884;9.192;2023-12-28T11:01:20;3.72;;;2.60;;
568;SDS011;269;48.884;9.192;2023-12-28T11:03:51;3.78;;;3.33;;
568;SDS011;269;48.884;9.192;2023-12-28T11:06:20;3.55;;;2.90;;
568;SDS011;269;48.884;9.192;2023-12-28T11:08:47;3.05;;;2.30;;
568;SDS011;269;48.884;9.192;2023-12-28T11:11:17;3.83;;;2.70;;
568;SDS011;269;48.884;9.192;2023-12-28T11:13:44;2.83;;;1.95;;
568;SDS011;269;48.884;9.192;2023-12-28T11:16:11;13.32;;;3.75;;
568;SDS011;269;48.884;9.192;2023-12-28T11:18:40;2.33;;;1.95;;
568;SDS011;269;48.884;9.192;2023-12-28T11:21:08;2.33;;;2.00;;
568;SDS011;269;48.884;9.192;2023-12-28T11:23:36;2.08;;;1.98;;
568;SDS011;269;48.884;9.192;2023-12-28T11:26:03;1.80;;;1.50;;
568;SDS011;269;48.884;9.192;2023-12-28T11:28:30;2.20;;;1.90;;
568;SDS011;269;48.884;9.192;2023-12-28T11:30:57;2.15;;;1.83;;
568;SDS011;269;48.884;9.192;2023-12-28T11:33:28;2.25;;;1.75;;
568;SDS011;269;48.884;9.192;2023-12-28T11:35:58;1.45;;;1.35;;
568;SDS011;269;48.884;9.192;2023-12-28T11:38:24;1.52;;;1.40;;
568;SDS011;269;48.884;9.192;2023-12-28T11:40:51;2.03;;;1.83;;
568;SDS011;269;48.884;9.192;2023-12-28T11:43:21;2.08;;;1.55;;
568;SDS011;269;48.884;9.192;2023-12-28T11:45:49;2.45;;;1.30;;
568;SDS011;269;48.884;9.192;2023-12-28T11:48:23;1.70;;;1.40;;
568;SDS011;269;48.884;9.192;2023-12-28T11:50:56;1.30;;;1.20;;
568;SDS011;269;48.884;9.192;2023-12-28T11:53:25;1.30;;;1.20;;
568;SDS011;269;48.884;9.192;2023-12-28T11:55:52;1.58;;;1.48;;
568;SDS011;269;48.884;9.192;2023-12-28T11:58:26;1.65;;;1.55;;
568;SDS011;269;48.884;9.192;2023-12-28T12:00:54;1.90;;;1.65;;
568;SDS011;269;48.884;9.192;2023-12-28T12:03:26;3.15;;;1.42;;
568;SDS011;269;48.884;9.192;2023-12-28T12:05:55;1.83;;;1.63;;
568;SDS011;269;48.884;9.192;2023-12-28T12:08:24;2.47;;;1.48;;
568;SDS011;269;48.884;9.192;2023-12-28T12:10:59;1.40;;;1.30;;
568;SDS011;269;48.884;9.192;2023-12-28T12:13:28;1.90;;;1.53;;
568;SDS011;269;48.884;9.192;2023-12-28T12:15:55;3.00;;;1.70;;
568;SDS011;269;48.884;9.192;2023-12-28T12:18:22;1.73;;;1.63;;
568;SDS011;269;48.884;9.192;2023-12-28T12:20:48;2.00;;;1.80;;
568;SDS011;269;48.884;9.192;2023-12-28T12:23:15;1.50;;;1.25;;
568;SDS011;269;48.884;9.192;2023-12-28T12:25:47;1.85;;;1.60;;
568;SDS011;269;48.884;9.192;2023-12-28T12:28:14;2.43;;;1.47;;
568;SDS011;269;48.884;9.192;2023-12-28T12:30:40;2.20;;;1.60;;
568;SDS011;269;48.884;9.192;2023-12-28T12:33:07;2.17;;;1.47;;
568;SDS011;269;48.884;9.192;2023-12-28T12:35:34;1.77;;;1.43;;
568;SDS011;269;48.884;9.192;2023-12-28T12:38:01;51.40;;;8.50;;
568;SDS011;269;48.884;9.192;2023-12-28T12:40:30;2.50;;;1.83;;
568;SDS011;269;48.884;9.192;2023-12-28T12:42:58;1.90;;;1.52;;
568;SDS011;269;48.884;9.192;2023-12-28T12:45:27;3.20;;;1.60;;
568;SDS011;269;48.884;9.192;2023-12-28T12:47:55;1.60;;;1.50;;
568;SDS011;269;48.884;9.192;2023-12-28T12:50:21;2.43;;;1.77;;
568;SDS011;269;48.884;9.192;2023-12-28T12:52:48;1.70;;;1.60;;
568;SDS011;269;48.884;9.192;2023-12-28T12:55:14;2.47;;;1.75;;
568;SDS011;269;48.884;9.192;2023-12-28T12:57:42;2.20;;;1.85;;
568;SDS011;269;48.884;9.192;2023-12-28T13:00:11;2.63;;;1.80;;
568;SDS011;269;48.884;9.192;2023-12-28T13:02:38;2.10;;;1.90;;
568;SDS011;269;48.884;9.192;2023-12-28T13:05:05;2.67;;;1.80;;
568;SDS011;269;48.884;9.192;2023-12-28T13:07:33;2.47;;;1.80;;
568;SDS011;269;48.884;9.192;2023-12-28T13:10:01;2.17;;;1.98;;
568;SDS011;269;48.884;9.192;2023-12-28T13:12:28;2.00;;;1.90;;
568;SDS011;269;48.884;9.192;2023-12-28T13:14:55;2.42;;;2.22;;
568;SDS011;269;48.884;9.192;2023-12-28T13:17:24;2.63;;;2.42;;
568;SDS011;269;48.884;9.192;2023-12-28T13:19:51;2.37;;;1.93;;
568;SDS011;269;48.884;9.192;2023-12-28T13:22:18;3.38;;;2.10;;
568;SDS011;269;48.884;9.192;2023-12-28T13:24:47;2.22;;;2.03;;
568;SDS011;269;48.884;9.192;2023-12-28T13:27:14;3.37;;;3.07;;
568;SDS011;269;48.884;9.192;2023-12-28T13:29:40;4.83;;;2.60;;
568;SDS011;269;48.884;9.192;2023-12-28T13:32:15;4.85;;;3.60;;
568;SDS011;269;48.884;9.192;2023-12-28T13:34:43;3.88;;;3.10;;
568;SDS011;269;48.884;9.192;2023-12-28T13:37:13;3.47;;;3.17;;
568;SDS011;269;48.884;9.192;2023-12-28T13:39:40;4.60;;;3.58;;
568;SDS011;269;48.884;9.192;2023-12-28T13:42:07;4.47;;;3.37;;
568;SDS011;269;48.884;9.192;2023-12-28T13:44:34;3.50;;;3.20;;
568;SDS011;269;48.884;9.192;2023-12-28T13:47:01;3.97;;;3.58;;
568;SDS011;269;48.884;9.192;2023-12-28T13:49:28;3.57;;;3.27;;
568;SDS011;269;48.884;9.192;2023-12-28T13:52:02;3.58;;;2.90;;
568;SDS011;269;48.884;9.192;2023-12-28T13:54:29;2.55;;;2.35;;
568;SDS011;269;48.884;9.192;2023-12-28T13:56:57;3.00;;;2.60;;
568;SDS011;269;48.884;9.192;2023-12-28T13:59:24;3.47;;;3.17;;
568;SDS011;269;48.884;9.192;2023-12-28T14:01:52;3.00;;;2.70;;
568;SDS011;269;48.884;9.192;2023-12-28T14:04:18;4.18;;;3.55;;
568;SDS011;269;48.884;9.192;2023-12-28T14:06:45;4.00;;;3.60;;
568;SDS011;269;48.884;9.192;2023-12-28T14:09:13;4.77;;;4.37;;
568;SDS011;269;48.884;9.192;2023-12-28T14:11:44;3.80;;;3.47;;
568;SDS011;269;48.884;9.192;2023-12-28T14:14:12;3.25;;;2.95;;
568;SDS011;269;48.884;9.192;2023-12-28T14:16:39;3.47;;;3.15;;
568;SDS011;269;48.884;9.192;2023-12-28T14:19:06;3.17;;;2.87;;
568;SDS011;269;48.884;9.192;2023-12-28T14:21:34;3.20;;;3.00;;
568;SDS011;269;48.884;9.192;2023-12-28T14:24:03;2.60;;;2.40;;
568;SDS011;269;48.884;9.192;2023-12-28T14:26:32;4.65;;;3.30;;
568;SDS011;269;48.884;9.192;2023-12-28T14:28:59;4.05;;;2.90;;
568;SDS011;269;48.884;9.192;2023-12-28T14:31:30;4.03;;;3.63;;
568;SDS011;269;48.884;9.192;2023-12-28T14:33:57;3.25;;;2.90;;
568;SDS011;269;48.884;9.192;2023-12-28T14:36:26;3.47;;;3.17;;
568;SDS011;269;48.884;9.192;2023-12-28T14:38:58;3.50;;;2.90;;
568;SDS011;269;48.884;9.192;2023-12-28T14:41:25;3.33;;;3.13;;
568;SDS011;269;48.884;9.192;2023-12-28T14:43:55;3.22;;;2.85;;
568;SDS011;269;48.884;9.192;2023-12-28T14:46:22;4.40;;;2.45;;
568;SDS011;269;48.884;9.192;2023-12-28T14:48:49;2.65;;;2.45;;
568;SDS011;269;48.884;9.192;2023-12-28T14:51:16;2.92;;;2.72;;
568;SDS011;269;48.884;9.192;2023-12-28T14:53:43;3.00;;;2.20;;
568;SDS011;269;48.884;9.192;2023-12-28T14:56:10;2.83;;;2.63;;
568;SDS011;269;48.884;9.192;2023-12-28T14:58:38;2.58;;;2.38;;
568;SDS011;269;48.884;9.192;2023-12-28T15:01:06;3.40;;;3.10;;
568;SDS011;269;48.884;9.192;2023-12-28T15:03:33;3.50;;;3.20;;
568;SDS011;269;48.884;9.192;2023-12-28T15:06:00;3.28;;;2.97;;
568;SDS011;269;48.884;9.192;2023-12-28T15:08:29;4.65;;;4.22;;
568;SDS011;269;48.884;9.192;2023-12-28T15:10:55;3.65;;;3.35;;
568;SDS011;269;48.884;9.192;2023-12-28T15:13:23;6.43;;;3.90;;
568;SDS011;269;48.884;9.192;2023-12-28T15:15:49;4.25;;;3.85;;
568;SDS011;269;48.884;9.192;2023-12-28T15:18:21;3.85;;;3.50;;
568;SDS011;269;48.884;9.192;2023-12-28T15:20:49;4.90;;;4.15;;
568;SDS011;269;48.884;9.192;2023-12-28T15:23:18;5.15;;;4.75;;
568;SDS011;269;48.884;9.192;2023-12-28T15:25:44;6.53;;;5.95;;
568;SDS011;269;48.884;9.192;2023-12-28T15:28:11;8.48;;;7.68;;
568;SDS011;269;48.884;9.192;2023-12-28T15:30:39;5.80;;;5.20;;
568;SDS011;269;48.884;9.192;2023-12-28T15:33:06;4.40;;;3.95;;
568;SDS011;269;48.884;9.192;2023-12-28T15:35:36;3.70;;;3.40;;
568;SDS011;269;48.884;9.192;2023-12-28T15:38:03;2.83;;;2.63;;
568;SDS011;269;48.884;9.192;2023-12-28T15:40:30;2.53;;;2.35;;
568;SDS011;269;48.884;9.192;2023-12-28T15:42:56;2.67;;;2.47;;
568;SDS011;269;48.884;9.192;2023-12-28T15:45:23;1.90;;;1.80;;
568;SDS011;269;48.884;9.192;2023-12-28T15:47:51;2.92;;;2.55;;